Time;durP1;ratioP1;P1;durP2;ratioP2;P2;SDS_P1;SDS_P2;PMS_P1;PMS_P2;Temp;Humidity;BMP_temperature;BMP_pressure;BME280_temperature;BME280_humidity;BME280_pressure;Samples;Min_cycle;Max_cycle;Signal;HPM_P1;HPM_P2
2022/01/21 05:01:10;;;;;;;3.30;1.38;;;0.20;99.90;;;;;;5608580;23;20366;-71
2022/01/21 05:03:39;;;;;;;3.33;1.42;;;0.20;99.90;;;;;;4955670;28;20550;-69
2022/01/21 05:06:06;;;;;;;5.65;1.50;;;0.20;99.90;;;;;;4954692;28;20291;-70
2022/01/21 05:08:41;;;;;;;2.88;1.02;;;0.30;99.90;;;;;;4954727;28;20255;-70
2022/01/21 05:11:08;;;;;;;6.97;2.05;;;0.30;99.90;;;;;;4954256;28;20233;-68
2022/01/21 05:13:39;;;;;;;4.50;2.00;;;0.30;99.90;;;;;;4954526;28;20651;-70
2022/01/21 05:16:10;;;;;;;6.00;1.92;;;0.40;99.90;;;;;;4968546;23;20229;-70
2022/01/21 05:18:38;;;;;;;3.97;1.60;;;0.40;99.90;;;;;;4963045;28;20229;-70
2022/01/21 05:21:05;;;;;;;4.72;2.05;;;0.40;99.90;;;;;;4972041;28;20583;-70
2022/01/21 05:23:32;;;;;;;5.43;1.27;;;0.40;99.90;;;;;;4973778;28;20238;-70
2022/01/21 05:25:59;;;;;;;1.75;1.65;;;0.50;99.90;;;;;;4973491;28;20700;-71
2022/01/21 05:28:25;;;;;;;6.78;1.60;;;0.50;99.90;;;;;;4973588;28;20717;-70
2022/01/21 05:30:52;;;;;;;5.70;1.60;;;0.60;99.90;;;;;;4958674;28;20352;-70
2022/01/21 05:33:19;;;;;;;1.42;1.13;;;0.60;99.90;;;;;;4954754;28;20247;-71
2022/01/21 05:35:47;;;;;;;5.18;1.40;;;0.60;99.90;;;;;;4967207;28;20228;-70
2022/01/21 05:38:13;;;;;;;5.65;1.75;;;0.70;99.90;;;;;;4974000;28;20263;-70
2022/01/21 05:40:42;;;;;;;11.10;2.47;;;0.80;99.90;;;;;;4961181;28;20649;-70
2022/01/21 05:43:09;;;;;;;6.90;1.80;;;0.90;99.90;;;;;;4954326;28;20220;-70
2022/01/21 05:48:20;;;;;;;8.15;2.30;;;0.90;99.90;;;;;;4954576;29;20681;-70
2022/01/21 05:50:48;;;;;;;9.60;1.80;;;0.90;99.90;;;;;;4970916;28;20255;-71
2022/01/21 05:53:15;;;;;;;8.85;2.28;;;1.00;99.90;;;;;;4973540;28;20209;-71
2022/01/21 05:55:43;;;;;;;7.70;1.70;;;1.00;99.90;;;;;;4972714;28;20279;-71
2022/01/21 05:58:10;;;;;;;5.10;1.35;;;1.10;99.90;;;;;;4973605;28;20200;-71
2022/01/21 06:00:38;;;;;;;4.22;1.15;;;1.10;99.90;;;;;;4973701;28;20227;-70
2022/01/21 06:03:05;;;;;;;8.02;1.50;;;1.10;99.90;;;;;;4973580;28;20267;-71
2022/01/21 06:05:33;;;;;;;3.80;1.38;;;1.10;99.90;;;;;;4969446;28;20347;-71
2022/01/21 06:08:02;;;;;;;3.22;1.27;;;1.10;99.90;;;;;;4973389;28;20224;-71
2022/01/21 06:10:29;;;;;;;1.27;1.13;;;1.10;99.90;;;;;;4960944;28;20256;-71
2022/01/21 06:12:56;;;;;;;1.70;1.60;;;1.20;99.90;;;;;;4953662;28;20213;-71
2022/01/21 06:15:23;;;;;;;1.85;1.75;;;1.20;99.90;;;;;;4963787;28;20237;-71
2022/01/21 06:17:50;;;;;;;5.20;1.50;;;1.20;99.90;;;;;;4973015;28;20208;-71
2022/01/21 06:20:16;;;;;;;3.38;1.50;;;1.10;99.90;;;;;;4967476;28;20268;-70
2022/01/21 06:22:43;;;;;;;2.53;2.33;;;1.10;99.90;;;;;;4973293;28;20201;-72
2022/01/21 06:25:11;;;;;;;5.93;1.58;;;1.10;99.90;;;;;;4972700;28;20557;-72
2022/01/21 06:27:39;;;;;;;4.18;1.40;;;1.10;99.90;;;;;;4972636;28;20332;-72
2022/01/21 06:30:07;;;;;;;1.95;1.13;;;1.10;99.90;;;;;;4972094;28;20201;-72
2022/01/21 06:32:34;;;;;;;6.60;1.75;;;1.10;99.90;;;;;;4972900;28;20209;-72
2022/01/21 06:35:00;;;;;;;2.95;1.02;;;1.10;99.90;;;;;;4966055;28;20213;-72
2022/01/21 06:37:27;;;;;;;7.43;2.15;;;1.00;99.90;;;;;;4954576;28;20965;-71
2022/01/21 06:39:54;;;;;;;5.45;1.38;;;1.00;99.90;;;;;;4972450;28;20577;-72
2022/01/21 06:42:24;;;;;;;4.75;1.40;;;1.00;99.90;;;;;;4971917;28;20255;-72
2022/01/21 06:44:51;;;;;;;5.75;1.67;;;0.90;99.90;;;;;;4953943;28;20585;-72
2022/01/21 06:47:18;;;;;;;5.70;1.50;;;0.90;99.90;;;;;;4954382;28;20209;-72
2022/01/21 06:49:45;;;;;;;7.00;1.40;;;0.90;99.90;;;;;;4954286;28;20335;-71
2022/01/21 06:52:12;;;;;;;9.45;1.55;;;0.90;99.90;;;;;;4953970;28;20682;-72
2022/01/21 06:54:39;;;;;;;2.40;2.15;;;0.80;99.90;;;;;;4963801;28;20593;-72
2022/01/21 06:57:05;;;;;;;2.70;2.50;;;0.90;99.90;;;;;;4972752;28;20236;-71
2022/01/21 06:59:33;;;;;;;2.45;1.58;;;0.90;99.90;;;;;;4970819;28;20204;-71
2022/01/21 07:02:00;;;;;;;9.35;2.40;;;0.90;99.90;;;;;;4954831;28;20268;-72
2022/01/21 07:04:27;;;;;;;1.85;1.70;;;0.90;99.90;;;;;;4952892;28;20588;-72
2022/01/21 07:06:56;;;;;;;7.78;1.90;;;0.90;99.90;;;;;;4967369;28;20816;-73
2022/01/21 07:09:23;;;;;;;2.38;1.90;;;0.90;99.90;;;;;;4971962;28;20232;-71
2022/01/21 07:11:49;;;;;;;2.35;1.30;;;1.00;99.90;;;;;;4958408;28;20732;-72
2022/01/21 07:14:16;;;;;;;2.80;2.42;;;1.00;99.90;;;;;;4959436;28;20233;-71
2022/01/21 07:16:44;;;;;;;12.52;2.42;;;1.10;99.90;;;;;;4971501;28;20240;-71
2022/01/21 07:19:11;;;;;;;4.22;1.17;;;1.10;99.90;;;;;;4972248;28;20209;-71
2022/01/21 07:21:37;;;;;;;2.80;1.40;;;1.10;99.90;;;;;;4971631;28;20208;-71
2022/01/21 07:24:04;;;;;;;1.95;1.55;;;1.10;99.90;;;;;;4953698;28;20210;-70
2022/01/21 07:26:31;;;;;;;5.45;1.55;;;1.10;99.90;;;;;;4970798;28;20271;-71
2022/01/21 07:28:58;;;;;;;3.42;1.75;;;1.20;99.90;;;;;;4963539;28;20225;-72
2022/01/21 07:31:25;;;;;;;5.55;1.85;;;1.20;99.90;;;;;;4952649;28;20280;-71
2022/01/21 07:33:53;;;;;;;5.95;1.75;;;1.20;99.90;;;;;;4964733;28;20222;-71
2022/01/21 07:36:19;;;;;;;6.22;1.60;;;1.20;99.90;;;;;;4952683;28;20578;-71
2022/01/21 07:38:46;;;;;;;3.33;1.58;;;1.10;99.90;;;;;;4952881;28;20228;-72
2022/01/21 07:41:13;;;;;;;2.67;1.38;;;1.10;99.90;;;;;;4957577;28;20208;-71
2022/01/21 07:43:39;;;;;;;2.22;1.83;;;1.10;99.90;;;;;;4970189;28;20205;-71
2022/01/21 07:46:06;;;;;;;2.97;2.08;;;1.10;99.90;;;;;;4971019;28;20290;-71
2022/01/21 07:48:33;;;;;;;2.50;1.45;;;1.10;99.90;;;;;;4971995;28;20380;-71
2022/01/21 07:51:01;;;;;;;2.78;1.45;;;1.10;99.90;;;;;;4957479;28;20213;-72
2022/01/21 07:53:28;;;;;;;7.55;1.75;;;1.10;99.90;;;;;;4952809;28;20259;-71
2022/01/21 07:55:54;;;;;;;3.40;1.63;;;1.10;99.90;;;;;;4966015;28;20228;-71
2022/01/21 07:58:21;;;;;;;7.35;2.30;;;1.10;99.90;;;;;;4971482;28;20208;-71
2022/01/21 08:00:48;;;;;;;1.83;1.65;;;1.10;99.90;;;;;;4959230;28;20211;-71
2022/01/21 08:03:15;;;;;;;2.50;1.65;;;1.10;99.90;;;;;;4952480;28;20209;-71
2022/01/21 08:05:44;;;;;;;3.30;1.08;;;1.10;99.90;;;;;;4952620;28;20390;-72
2022/01/21 08:08:12;;;;;;;4.90;1.95;;;1.10;99.90;;;;;;4953114;28;20698;-74
2022/01/21 08:10:38;;;;;;;1.48;1.23;;;1.20;99.90;;;;;;4951927;28;20614;-72
2022/01/21 08:13:05;;;;;;;4.47;1.83;;;1.20;99.90;;;;;;4953746;28;20228;-71
2022/01/21 08:15:32;;;;;;;8.35;2.30;;;1.30;99.90;;;;;;4963803;28;20686;-71
2022/01/21 08:17:59;;;;;;;6.28;1.80;;;1.30;99.90;;;;;;4952843;28;20219;-71
2022/01/21 08:20:26;;;;;;;3.40;2.35;;;1.30;99.90;;;;;;4959598;28;20201;-71
2022/01/21 08:22:52;;;;;;;3.63;2.40;;;1.40;99.90;;;;;;4952800;28;20217;-71
2022/01/21 08:25:20;;;;;;;1.77;1.52;;;1.40;99.90;;;;;;4965595;28;20462;-71
2022/01/21 08:27:48;;;;;;;4.70;1.60;;;1.50;99.90;;;;;;4970282;28;20217;-71
2022/01/21 08:30:15;;;;;;;2.45;1.65;;;1.50;99.90;;;;;;4971480;28;20220;-72
2022/01/21 08:32:42;;;;;;;4.15;1.42;;;1.60;99.90;;;;;;4969225;28;20279;-69
2022/01/21 08:35:10;;;;;;;1.63;0.88;;;1.60;99.90;;;;;;4969416;28;20228;-69
2022/01/21 08:37:37;;;;;;;3.38;1.40;;;1.70;99.90;;;;;;4971596;28;20212;-69
2022/01/21 08:40:05;;;;;;;1.98;1.83;;;1.70;99.90;;;;;;4954477;28;20202;-69
2022/01/21 08:42:33;;;;;;;3.40;1.33;;;1.70;99.90;;;;;;4954095;28;20707;-70
2022/01/21 08:44:59;;;;;;;2.65;1.45;;;1.80;99.90;;;;;;4974444;28;20256;-69
2022/01/21 08:47:26;;;;;;;1.65;1.08;;;1.80;99.90;;;;;;4974464;28;20204;-70
2022/01/21 08:49:53;;;;;;;1.02;1.00;;;1.80;99.90;;;;;;4974454;28;20232;-69
2022/01/21 08:52:23;;;;;;;2.80;1.30;;;1.80;99.90;;;;;;4962401;28;20295;-69
2022/01/21 08:54:51;;;;;;;2.67;1.20;;;1.80;99.90;;;;;;4955254;28;20300;-69
2022/01/21 08:57:19;;;;;;;1.83;1.70;;;1.80;99.90;;;;;;4955519;28;20733;-68
2022/01/21 08:59:49;;;;;;;1.33;1.17;;;1.80;99.90;;;;;;4962486;28;20491;-69
2022/01/21 09:02:15;;;;;;;2.85;1.95;;;1.90;99.90;;;;;;4974891;28;20204;-68
2022/01/21 09:04:42;;;;;;;2.50;1.40;;;1.90;99.90;;;;;;4970581;28;20208;-69
2022/01/21 09:07:09;;;;;;;1.80;1.30;;;1.90;99.90;;;;;;4974433;28;20228;-69
2022/01/21 09:09:35;;;;;;;6.45;2.10;;;1.90;99.90;;;;;;4974001;28;20283;-69
2022/01/21 09:12:02;;;;;;;3.25;2.95;;;1.90;99.90;;;;;;4975433;28;20622;-68
2022/01/21 09:14:30;;;;;;;11.00;6.78;;;1.90;99.90;;;;;;4961772;28;20255;-69
2022/01/21 09:16:58;;;;;;;7.80;5.20;;;1.90;99.90;;;;;;4969453;28;20237;-68
2022/01/21 09:19:26;;;;;;;11.30;5.03;;;1.90;99.90;;;;;;4966710;28;20271;-68
2022/01/21 09:21:55;;;;;;;1.63;1.52;;;1.90;99.90;;;;;;4959401;28;20693;-69
2022/01/21 09:24:22;;;;;;;5.85;2.17;;;1.90;99.90;;;;;;4972856;28;20208;-69
2022/01/21 09:26:49;;;;;;;6.20;3.47;;;2.00;99.90;;;;;;4973512;28;20303;-68
2022/01/21 09:29:16;;;;;;;2.45;2.25;;;2.00;99.90;;;;;;4959393;28;20709;-69
2022/01/21 09:31:43;;;;;;;3.30;2.15;;;2.10;99.90;;;;;;4956907;28;20986;-69
2022/01/21 09:34:11;;;;;;;2.85;2.22;;;2.10;99.90;;;;;;4968522;28;20236;-68
2022/01/21 09:36:38;;;;;;;2.83;2.50;;;2.10;99.90;;;;;;4974045;28;20220;-69
2022/01/21 09:39:05;;;;;;;1.70;1.60;;;2.10;99.90;;;;;;4974389;28;20220;-68
2022/01/21 09:41:32;;;;;;;2.25;1.70;;;2.10;99.90;;;;;;4971782;28;20196;-69
2022/01/21 09:44:02;;;;;;;2.25;1.38;;;2.20;99.90;;;;;;4958834;28;20654;-68
2022/01/21 09:46:34;;;;;;;4.55;1.80;;;2.20;99.90;;;;;;4969542;28;20331;-68
2022/01/21 09:49:08;;;;;;;3.42;1.50;;;2.20;99.90;;;;;;4973899;28;20232;-69
2022/01/21 09:51:37;;;;;;;2.30;1.15;;;2.30;99.90;;;;;;4955410;28;20209;-69
2022/01/21 09:54:05;;;;;;;1.38;1.15;;;2.40;99.90;;;;;;4960929;28;20213;-69
2022/01/21 09:56:34;;;;;;;2.33;1.60;;;2.60;99.90;;;;;;4967375;28;20775;-69
2022/01/21 09:59:01;;;;;;;3.97;2.05;;;2.60;99.90;;;;;;4959836;28;20228;-68
2022/01/21 10:01:28;;;;;;;2.72;2.40;;;2.70;99.90;;;;;;4967309;28;20216;-70
2022/01/21 10:03:55;;;;;;;2.65;2.45;;;2.70;99.90;;;;;;4954272;28;20213;-70
2022/01/21 10:06:24;;;;;;;4.43;2.95;;;2.80;99.90;;;;;;4962938;28;20232;-68
2022/01/21 10:08:55;;;;;;;3.05;2.85;;;2.80;99.90;;;;;;4965562;28;20280;-69
2022/01/21 10:11:22;;;;;;;1.88;1.77;;;2.70;99.90;;;;;;4965098;28;20217;-69
2022/01/21 10:13:51;;;;;;;3.72;2.60;;;2.80;99.90;;;;;;4955098;28;20657;-68
2022/01/21 10:16:18;;;;;;;4.05;2.17;;;2.70;99.90;;;;;;4951728;28;20685;-67
2022/01/21 10:19:00;;;;;;;4.68;2.95;;;2.80;99.90;;;;;;4952092;28;20217;-68
2022/01/21 10:21:30;;;;;;;3.72;1.65;;;2.80;99.90;;;;;;4950820;28;20213;-68
2022/01/21 10:24:05;;;;;;;2.97;2.10;;;2.80;99.90;;;;;;4951134;28;20223;-68
2022/01/21 10:26:32;;;;;;;1.95;1.50;;;2.90;99.90;;;;;;4951476;28;20381;-68
2022/01/21 10:28:58;;;;;;;4.65;2.20;;;2.90;99.90;;;;;;4951369;28;20631;-68
2022/01/21 10:31:27;;;;;;;9.43;2.53;;;2.90;99.90;;;;;;4951322;28;20220;-68
2022/01/21 10:33:59;;;;;;;5.05;2.53;;;2.90;99.90;;;;;;4951765;28;20225;-68
2022/01/21 10:36:30;;;;;;;2.40;1.75;;;3.00;99.90;;;;;;4956048;28;20275;-68
2022/01/21 10:39:08;;;;;;;4.38;2.13;;;3.00;99.90;;;;;;4970277;28;20204;-68
2022/01/21 10:41:36;;;;;;;2.25;1.25;;;3.10;99.90;;;;;;4969316;28;20208;-68
2022/01/21 10:44:10;;;;;;;2.65;1.42;;;3.10;99.90;;;;;;4969230;28;20220;-68
2022/01/21 10:46:38;;;;;;;5.68;1.05;;;3.20;99.90;;;;;;4969997;28;20224;-69
2022/01/21 10:49:07;;;;;;;1.27;0.85;;;3.20;99.90;;;;;;4969798;28;20662;-68
2022/01/21 10:51:35;;;;;;;0.60;0.60;;;3.40;99.90;;;;;;4954855;28;20213;-68
2022/01/21 10:54:18;;;;;;;1.75;1.38;;;3.50;99.90;;;;;;4950805;28;20205;-68
2022/01/21 10:57:17;;;;;;;4.00;1.00;;;3.60;99.90;;;;;;4950391;28;20711;-68
2022/01/21 10:59:57;;;;;;;1.55;1.45;;;3.60;99.90;;;;;;4949787;28;20212;-68
2022/01/21 11:02:33;;;;;;;7.40;1.35;;;3.70;99.90;;;;;;4962424;28;20212;-69
2022/01/21 11:05:03;;;;;;;6.53;2.50;;;3.70;99.90;;;;;;4959482;28;20213;-68
2022/01/21 11:07:47;;;;;;;3.50;1.27;;;3.80;99.90;;;;;;4961379;28;20650;-68
2022/01/21 11:10:42;;;;;;;1.85;1.35;;;3.70;99.90;;;;;;4951237;28;20233;-69
2022/01/21 11:13:29;;;;;;;2.55;2.35;;;3.80;99.90;;;;;;4947344;28;20312;-69
2022/01/21 11:15:58;;;;;;;2.47;2.00;;;3.80;99.90;;;;;;4952453;28;20244;-70
2022/01/21 11:18:29;;;;;;;2.30;1.20;;;3.80;99.90;;;;;;4981284;23;20636;-67
2022/01/21 11:21:04;;;;;;;3.00;2.80;;;3.80;99.90;;;;;;4963377;28;20755;-68
2022/01/21 11:23:33;;;;;;;3.65;2.08;;;3.80;99.90;;;;;;4971347;28;20270;-68
2022/01/21 11:26:08;;;;;;;1.80;1.70;;;3.90;99.90;;;;;;4971325;28;20272;-68
2022/01/21 11:28:39;;;;;;;3.40;3.20;;;3.90;99.90;;;;;;4952199;28;20740;-68
2022/01/21 11:31:06;;;;;;;3.50;2.15;;;3.90;99.90;;;;;;4955375;28;20636;-68
2022/01/21 11:33:34;;;;;;;1.75;1.63;;;4.00;99.90;;;;;;4964769;28;20569;-68
2022/01/21 11:36:01;;;;;;;11.38;2.30;;;4.00;99.90;;;;;;4959480;28;20218;-68
2022/01/21 11:38:30;;;;;;;7.53;6.93;;;4.00;99.90;;;;;;4969305;28;20304;-70
2022/01/21 11:40:56;;;;;;;3.13;2.80;;;4.00;99.90;;;;;;4971348;28;20215;-69
2022/01/21 11:43:25;;;;;;;2.45;2.35;;;4.00;99.90;;;;;;4972246;28;20213;-68
2022/01/21 11:48:51;;;;;;;3.55;2.42;;;4.10;99.90;;;;;;4968063;28;20220;-68
2022/01/21 11:51:27;;;;;;;4.53;1.65;;;4.20;99.90;;;;;;4971406;28;20268;-69
2022/01/21 11:53:56;;;;;;;3.83;1.92;;;4.20;99.90;;;;;;4970437;28;20215;-68
2022/01/21 11:56:35;;;;;;;4.10;2.22;;;4.20;99.90;;;;;;4963237;28;20213;-69
2022/01/21 11:59:07;;;;;;;8.38;2.15;;;4.30;99.90;;;;;;4971013;28;20232;-69
2022/01/21 12:01:39;;;;;;;5.70;1.40;;;4.30;99.90;;;;;;4969126;28;20212;-70
2022/01/21 12:04:06;;;;;;;1.83;1.73;;;4.30;99.90;;;;;;4967977;28;20216;-69
2022/01/21 12:06:34;;;;;;;6.82;2.53;;;4.40;99.90;;;;;;4970873;28;20292;-69
2022/01/21 12:09:03;;;;;;;4.30;1.55;;;4.40;99.90;;;;;;4962910;28;20232;-69
2022/01/21 12:11:37;;;;;;;2.22;2.13;;;4.40;99.90;;;;;;4961136;28;20584;-69
2022/01/21 12:14:20;;;;;;;2.15;1.60;;;4.50;99.90;;;;;;4952108;28;20209;-70
2022/01/21 12:16:54;;;;;;;5.63;2.65;;;4.50;99.90;;;;;;4972120;28;20208;-69
2022/01/21 12:19:32;;;;;;;3.00;1.70;;;4.50;99.90;;;;;;4956734;28;20736;-69
2022/01/21 12:22:14;;;;;;;3.35;2.10;;;4.50;99.90;;;;;;4968859;28;20622;-68
2022/01/21 12:24:54;;;;;;;2.95;1.40;;;4.50;99.90;;;;;;4965673;28;20205;-69
2022/01/21 12:27:23;;;;;;;4.90;1.23;;;4.50;99.90;;;;;;4959952;28;20733;-68
2022/01/21 12:29:51;;;;;;;4.90;3.00;;;4.60;99.90;;;;;;4969868;28;20644;-68
2022/01/21 12:32:32;;;;;;;3.13;2.05;;;4.50;99.90;;;;;;4975048;28;20217;-69
2022/01/21 12:35:17;;;;;;;2.63;2.30;;;4.50;99.90;;;;;;4966602;28;20205;-69
2022/01/21 12:39:05;;;;;;;4.50;2.17;;;4.50;99.90;;;;;;4955859;28;20224;-69
2022/01/21 12:40:59;;;;;;;5.72;2.83;;;4.50;99.90;;;;;;4954869;29;20211;-69
2022/01/21 12:43:38;;;;;;;4.03;2.00;;;4.50;99.90;;;;;;4955615;28;20311;-70
2022/01/21 12:46:08;;;;;;;9.85;3.15;;;4.60;99.90;;;;;;4972299;28;20283;-68
2022/01/21 12:48:36;;;;;;;9.23;2.10;;;4.50;99.90;;;;;;4959188;28;20241;-68
2022/01/21 12:51:14;;;;;;;2.83;1.70;;;4.60;99.90;;;;;;4955300;28;20742;-68
2022/01/21 12:55:55;;;;;;;6.90;2.80;;;4.60;99.90;;;;;;4958823;28;20625;-68
2022/01/21 12:56:31;;;;;;;3.15;1.05;;;4.60;99.90;;;;;;4955377;28;20301;-69
2022/01/21 12:58:58;;;;;;;6.68;1.92;;;4.70;99.90;;;;;;4956936;28;20224;-67
2022/01/21 13:01:26;;;;;;;3.85;1.58;;;4.70;99.90;;;;;;4963978;28;20295;-68
2022/01/21 13:03:57;;;;;;;1.35;1.30;;;4.70;99.90;;;;;;4965423;28;20244;-68
2022/01/21 13:06:33;;;;;;;3.38;1.52;;;4.70;99.90;;;;;;4955072;28;20209;-68
2022/01/21 13:09:05;;;;;;;10.63;2.50;;;4.70;99.90;;;;;;4967620;28;20228;-68
2022/01/21 13:11:34;;;;;;;3.58;1.92;;;4.70;99.90;;;;;;4959179;28;20225;-67
2022/01/21 13:14:23;;;;;;;5.70;3.72;;;4.80;99.90;;;;;;4954093;28;20526;-69
2022/01/21 13:16:56;;;;;;;5.40;2.90;;;4.90;99.90;;;;;;4960718;28;20673;-69
2022/01/21 13:19:23;;;;;;;5.45;2.45;;;4.90;99.90;;;;;;4974010;28;20284;-69
2022/01/21 13:21:50;;;;;;;4.25;2.75;;;4.90;99.90;;;;;;4974062;28;20216;-67
2022/01/21 13:24:26;;;;;;;5.03;3.92;;;4.90;99.90;;;;;;4974330;28;20220;-67
2022/01/21 13:26:54;;;;;;;3.75;2.17;;;5.00;99.90;;;;;;4973900;28;20306;-68
2022/01/21 13:29:30;;;;;;;2.83;1.60;;;4.90;99.90;;;;;;4973308;28;20232;-68
2022/01/21 13:32:01;;;;;;;5.60;1.35;;;4.90;99.90;;;;;;4974224;28;20303;-68
2022/01/21 13:34:29;;;;;;;3.20;1.58;;;4.90;99.90;;;;;;4974022;28;20251;-67
2022/01/21 13:36:58;;;;;;;4.13;1.40;;;4.90;99.90;;;;;;4974152;28;20240;-68
2022/01/21 13:39:27;;;;;;;6.18;1.83;;;4.90;99.90;;;;;;4961147;28;20232;-67
2022/01/21 13:42:01;;;;;;;4.35;2.10;;;5.00;99.90;;;;;;4973118;28;20585;-68
2022/01/21 13:44:31;;;;;;;5.85;3.13;;;5.00;99.90;;;;;;4964525;28;20240;-68
2022/01/21 13:47:02;;;;;;;4.93;1.70;;;5.00;99.90;;;;;;4957939;28;20205;-69
2022/01/21 13:49:29;;;;;;;7.20;2.22;;;5.00;99.90;;;;;;4954366;28;20307;-68
2022/01/21 13:51:58;;;;;;;2.80;2.00;;;5.00;99.90;;;;;;4965685;28;20228;-69
2022/01/21 13:54:37;;;;;;;4.93;1.90;;;5.00;99.90;;;;;;4972824;28;20291;-68
2022/01/21 13:57:06;;;;;;;1.63;1.52;;;4.90;99.90;;;;;;4954648;28;20578;-69
2022/01/21 13:59:33;;;;;;;5.97;1.98;;;4.90;99.90;;;;;;4957286;28;20536;-69
2022/01/21 14:02:10;;;;;;;3.55;1.20;;;4.90;99.90;;;;;;4959141;28;20548;-69
2022/01/21 14:04:38;;;;;;;3.15;1.45;;;4.90;99.90;;;;;;4954190;28;20205;-68
2022/01/21 14:07:20;;;;;;;11.00;2.78;;;4.90;99.90;;;;;;4953906;28;20208;-68
2022/01/21 14:09:47;;;;;;;3.33;2.53;;;4.90;99.90;;;;;;4968998;28;20235;-67
2022/01/21 14:12:13;;;;;;;5.80;2.25;;;4.80;99.90;;;;;;4972528;28;20279;-69
2022/01/21 14:14:41;;;;;;;7.15;2.10;;;4.80;99.90;;;;;;4972448;28;20249;-68
2022/01/21 14:17:10;;;;;;;4.15;1.33;;;4.80;99.90;;;;;;4960502;28;20790;-68
2022/01/21 14:19:39;;;;;;;3.17;2.10;;;4.80;99.90;;;;;;4970804;28;20335;-68
2022/01/21 14:22:08;;;;;;;9.50;2.08;;;4.70;99.90;;;;;;4969491;28;20205;-67
2022/01/21 14:24:41;;;;;;;4.18;1.80;;;4.70;99.90;;;;;;4965175;28;20291;-68
2022/01/21 14:27:18;;;;;;;3.85;1.48;;;4.60;99.90;;;;;;4964549;28;20264;-68
2022/01/21 14:29:52;;;;;;;2.30;1.80;;;4.60;99.90;;;;;;4972153;28;20689;-69
2022/01/21 14:32:26;;;;;;;13.95;7.85;;;4.50;99.90;;;;;;4969385;28;20280;-68
2022/01/21 14:35:09;;;;;;;8.32;5.30;;;4.40;99.90;;;;;;4954049;28;20555;-68
2022/01/21 14:37:38;;;;;;;5.85;3.10;;;4.40;99.90;;;;;;4958848;28;20568;-67
2022/01/21 14:40:07;;;;;;;4.13;2.78;;;4.40;99.90;;;;;;4971747;28;20272;-67
2022/01/21 14:42:34;;;;;;;3.65;3.45;;;4.30;99.90;;;;;;4967194;28;20212;-66
2022/01/21 14:45:10;;;;;;;6.32;2.20;;;4.30;99.90;;;;;;4953168;28;20227;-69
2022/01/21 14:47:38;;;;;;;5.90;1.98;;;4.30;99.90;;;;;;4961991;28;20634;-67
2022/01/21 14:50:08;;;;;;;6.40;2.05;;;4.30;99.90;;;;;;4953136;28;20213;-67
2022/01/21 14:52:43;;;;;;;10.88;2.67;;;4.30;99.90;;;;;;4966411;28;20209;-68
2022/01/21 14:55:19;;;;;;;3.55;2.20;;;4.20;99.90;;;;;;4971648;28;20227;-68
2022/01/21 14:57:48;;;;;;;2.60;1.85;;;4.20;99.90;;;;;;4966151;28;20263;-67
2022/01/21 15:00:26;;;;;;;5.15;2.20;;;4.20;99.90;;;;;;4971146;28;20582;-67
2022/01/21 15:03:09;;;;;;;3.97;2.20;;;4.10;99.90;;;;;;4972053;28;20270;-68
2022/01/21 15:05:37;;;;;;;3.90;1.63;;;4.10;99.90;;;;;;4953658;28;20634;-68
2022/01/21 15:08:05;;;;;;;2.22;1.77;;;4.10;99.90;;;;;;4968597;28;20228;-68
2022/01/21 15:10:39;;;;;;;3.95;1.95;;;4.00;99.90;;;;;;4963496;28;20307;-68
2022/01/21 15:16:14;;;;;;;4.45;2.60;;;4.00;99.90;;;;;;4961971;28;20266;-68
2022/01/21 15:18:43;;;;;;;11.38;3.22;;;3.90;99.90;;;;;;4964318;28;20232;-68
2022/01/21 15:21:21;;;;;;;4.05;2.72;;;3.90;99.90;;;;;;4972379;28;20203;-67
2022/01/21 15:23:50;;;;;;;6.28;3.25;;;3.80;99.90;;;;;;4963527;28;20280;-68
2022/01/21 15:26:18;;;;;;;6.22;2.80;;;3.80;99.90;;;;;;4972271;28;20217;-67
2022/01/21 15:28:46;;;;;;;1.83;1.52;;;3.80;99.90;;;;;;4972107;28;20576;-67
2022/01/21 15:31:12;;;;;;;7.07;2.20;;;3.80;99.90;;;;;;4972340;28;20232;-67
2022/01/21 15:33:39;;;;;;;6.53;2.50;;;3.80;99.90;;;;;;4971509;28;20217;-68
2022/01/21 15:36:08;;;;;;;12.88;2.60;;;3.70;99.90;;;;;;4960927;28;20299;-68
2022/01/21 15:38:35;;;;;;;10.02;3.38;;;3.80;99.90;;;;;;4968464;28;20224;-69
2022/01/21 15:41:02;;;;;;;8.38;3.20;;;3.70;99.90;;;;;;4972444;28;20295;-68
2022/01/21 15:43:28;;;;;;;7.32;2.45;;;3.70;99.90;;;;;;4973477;28;20209;-67
2022/01/21 15:45:55;;;;;;;7.80;2.10;;;3.70;99.90;;;;;;4974522;28;20208;-67
2022/01/21 15:48:23;;;;;;;4.90;2.65;;;3.70;99.90;;;;;;4973447;28;20273;-67
2022/01/21 15:50:50;;;;;;;3.22;2.95;;;3.60;99.90;;;;;;4974152;28;20314;-67
2022/01/21 15:53:18;;;;;;;10.57;4.18;;;3.60;99.90;;;;;;4956962;28;20626;-67
2022/01/21 15:55:45;;;;;;;7.97;3.65;;;3.70;99.90;;;;;;4968108;28;20211;-68
2022/01/21 15:58:12;;;;;;;7.78;4.18;;;3.70;99.90;;;;;;4974733;28;20283;-68
2022/01/21 16:00:38;;;;;;;7.75;4.95;;;3.70;99.90;;;;;;4972327;28;20205;-68
2022/01/21 16:03:06;;;;;;;3.40;3.10;;;3.80;99.90;;;;;;4956431;29;20212;-69
2022/01/21 16:05:33;;;;;;;9.07;4.82;;;3.80;99.90;;;;;;4969557;28;20208;-69
2022/01/21 16:08:00;;;;;;;4.95;3.30;;;3.70;99.90;;;;;;4975379;28;20232;-68
2022/01/21 16:10:29;;;;;;;2.50;2.30;;;3.80;99.90;;;;;;4968256;28;20306;-70
2022/01/21 16:12:57;;;;;;;8.80;2.80;;;3.80;99.90;;;;;;4964328;28;20228;-69
2022/01/21 16:15:24;;;;;;;6.47;2.85;;;3.80;99.90;;;;;;4962479;28;20314;-68
2022/01/21 16:17:51;;;;;;;12.68;4.50;;;3.80;99.90;;;;;;4975256;28;20292;-70
2022/01/21 16:20:18;;;;;;;4.90;3.10;;;3.80;99.90;;;;;;4974377;28;20681;-69
2022/01/21 16:22:45;;;;;;;3.70;2.80;;;3.80;99.90;;;;;;4975013;28;20216;-69
2022/01/21 16:25:11;;;;;;;3.38;2.50;;;3.80;99.90;;;;;;4974396;28;20208;-70
2022/01/21 16:27:39;;;;;;;9.10;3.67;;;3.80;99.90;;;;;;4976419;28;20591;-68
2022/01/21 16:30:09;;;;;;;6.60;3.88;;;3.80;99.90;;;;;;4970383;28;20223;-68
2022/01/21 16:32:37;;;;;;;5.07;3.25;;;3.80;99.90;;;;;;4961638;28;20299;-68
2022/01/21 16:35:05;;;;;;;6.35;3.33;;;3.90;99.90;;;;;;4955582;28;20217;-69
2022/01/21 16:37:31;;;;;;;7.78;3.50;;;3.90;99.90;;;;;;4955489;28;20209;-68
2022/01/21 16:40:03;;;;;;;3.90;3.38;;;3.80;99.90;;;;;;4958728;28;20292;-69
2022/01/21 16:42:33;;;;;;;6.63;3.50;;;3.90;99.90;;;;;;4957547;28;20648;-69
2022/01/21 16:45:01;;;;;;;6.65;2.97;;;3.80;99.90;;;;;;4973911;28;20292;-69
2022/01/21 16:47:28;;;;;;;10.23;5.47;;;3.80;99.90;;;;;;4974108;28;20688;-68
2022/01/21 16:49:55;;;;;;;15.07;5.70;;;3.90;99.90;;;;;;4974665;28;20767;-68
2022/01/21 16:52:22;;;;;;;19.83;9.90;;;3.80;99.90;;;;;;4967066;28;20221;-69
2022/01/21 16:54:49;;;;;;;10.82;6.25;;;3.80;99.90;;;;;;4966720;28;20208;-70
2022/01/21 16:57:16;;;;;;;4.95;3.00;;;3.80;99.90;;;;;;4974229;28;20216;-68
2022/01/21 16:59:43;;;;;;;4.13;3.75;;;3.80;99.90;;;;;;4973856;28;20716;-69
2022/01/21 17:02:12;;;;;;;4.05;3.63;;;3.80;99.90;;;;;;4959490;28;20258;-68
2022/01/21 17:04:39;;;;;;;7.55;3.90;;;3.80;99.90;;;;;;4955126;28;20264;-68
2022/01/21 17:07:07;;;;;;;11.63;4.05;;;3.90;99.90;;;;;;4959985;28;20260;-69
2022/01/21 17:09:34;;;;;;;6.55;4.22;;;3.90;99.90;;;;;;4966078;28;20577;-69
2022/01/21 17:12:00;;;;;;;12.52;4.97;;;3.90;99.90;;;;;;4973397;28;20271;-69
2022/01/21 17:14:27;;;;;;;9.40;4.60;;;3.90;99.90;;;;;;4956492;28;20305;-69
2022/01/21 17:16:54;;;;;;;6.15;4.68;;;3.90;99.90;;;;;;4954935;28;20261;-68
2022/01/21 17:19:22;;;;;;;8.52;3.70;;;4.00;99.90;;;;;;4961532;28;20236;-69
2022/01/21 17:21:49;;;;;;;4.30;3.90;;;4.00;99.90;;;;;;4953937;28;20244;-69
2022/01/21 17:24:17;;;;;;;7.65;4.07;;;4.10;99.90;;;;;;4960576;28;20292;-68
2022/01/21 17:26:44;;;;;;;6.93;3.75;;;4.10;99.90;;;;;;4956571;28;20217;-68
2022/01/21 17:29:11;;;;;;;5.47;3.40;;;4.10;99.90;;;;;;4970965;28;20274;-67
2022/01/21 17:31:38;;;;;;;11.35;4.38;;;4.20;99.90;;;;;;4973000;28;20319;-68
2022/01/21 17:34:05;;;;;;;7.70;4.55;;;4.10;99.90;;;;;;4973786;28;20271;-67
2022/01/21 17:36:34;;;;;;;7.38;4.43;;;4.20;99.90;;;;;;4973503;28;20208;-68
2022/01/21 17:39:00;;;;;;;5.68;3.95;;;4.20;99.90;;;;;;4971962;28;20228;-68
2022/01/21 17:41:27;;;;;;;9.90;4.32;;;4.30;99.90;;;;;;4961751;28;20221;-68
2022/01/21 17:43:57;;;;;;;5.07;3.97;;;4.30;99.90;;;;;;4966683;28;20271;-68
2022/01/21 17:46:25;;;;;;;4.53;3.42;;;4.30;99.90;;;;;;4964856;28;20279;-69
2022/01/21 17:48:53;;;;;;;4.63;3.88;;;4.30;99.90;;;;;;4965477;28;20229;-68
2022/01/21 17:51:20;;;;;;;5.50;3.75;;;4.30;99.90;;;;;;4968965;28;20262;-68
2022/01/21 17:53:48;;;;;;;4.30;3.95;;;4.30;99.90;;;;;;4970293;28;20312;-68
2022/01/21 17:56:15;;;;;;;7.85;3.95;;;4.30;99.90;;;;;;4953519;28;20216;-68
2022/01/21 17:58:42;;;;;;;6.22;4.53;;;4.30;99.90;;;;;;4956757;28;20232;-69
2022/01/21 18:01:09;;;;;;;7.38;4.30;;;4.40;99.90;;;;;;4972835;28;20673;-69
2022/01/21 18:03:36;;;;;;;9.85;5.80;;;4.40;99.90;;;;;;4961827;28;20617;-71
2022/01/21 18:06:03;;;;;;;9.68;5.40;;;4.40;99.90;;;;;;4954049;28;20216;-69
2022/01/21 18:08:32;;;;;;;11.25;6.13;;;4.40;99.90;;;;;;4963662;28;20224;-70
2022/01/21 18:11:04;;;;;;;8.13;5.90;;;4.40;99.90;;;;;;4972681;28;20213;-70
2022/01/21 18:13:32;;;;;;;6.93;6.25;;;4.40;99.90;;;;;;4972167;28;20566;-70
2022/01/21 18:15:59;;;;;;;7.15;6.60;;;4.40;99.90;;;;;;4953234;28;20212;-70